AFR551 HECA-LFPG
Flight info
| Callsign | AFR551 |
|---|---|
| Flight time | N/A |
| Altitude | 38000 |
| Route | CVO L617 NOZ L551 ANTAR DCT RIGRO DCT DISOR DCT LONTA UL608 DOLEV DCT ROTAR DCT OSKOR DCT GARLO DCT CERVI DCT MOLUS DCT UNKIR DCT GIVRI/N0485F360 DCT TINIL |
| Aircraft | B77W/H-SDE1E2E3FGHIJ2J3J4J5M1RWXY/LB1D1 |
Departure
| Time | 2026-05-04 11:10 |
|---|---|
| Airport | Cairo International Airport (HECA) |
Arrival
| Time | N/A |
|---|---|
| Airport | Charles de Gaulle International Airport (LFPG) |
| Time | Latitude | Longitude | Altitude | Speed | Heading |
|---|---|---|---|---|---|
| 2026-05-04 10:28 | 30.11092 | 31.40163 | 379 ft | 0 kts | 17° |
| 2026-05-04 10:59 | 30.11078 | 31.40158 | 379 ft | 4 kts | 17° |
| 2026-05-04 10:59 | 30.11053 | 31.40149 | 379 ft | 4 kts | 17° |
| 2026-05-04 11:00 | 30.11026 | 31.40141 | 379 ft | 4 kts | 7° |
| 2026-05-04 11:01 | 30.10930 | 31.40142 | 379 ft | 0 kts | 17° |
| 2026-05-04 11:05 | 30.11208 | 31.41080 | 379 ft | 20 kts | 51° |
| 2026-05-04 11:06 | 30.11307 | 31.41209 | 379 ft | 23 kts | 48° |
| 2026-05-04 11:06 | 30.11418 | 31.41355 | 379 ft | 25 kts | 49° |
| 2026-05-04 11:06 | 30.11539 | 31.41519 | 379 ft | 28 kts | 49° |
| 2026-05-04 11:06 | 30.11675 | 31.41696 | 379 ft | 30 kts | 48° |
| 2026-05-04 11:08 | 30.12460 | 31.42871 | 379 ft | 23 kts | 120° |
| 2026-05-04 11:10 | 30.09326 | 31.39107 | 1948 ft | 185 kts | 231° |
| 2026-05-04 11:12 | 30.14746 | 31.31136 | 6572 ft | 261 kts | 326° |
| 2026-05-04 11:12 | 30.16249 | 31.29999 | 7527 ft | 257 kts | 322° |
| 2026-05-04 11:12 | 30.17711 | 31.28782 | 8315 ft | 261 kts | 320° |
| 2026-05-04 11:12 | 30.19160 | 31.27486 | 9093 ft | 265 kts | 318° |
| 2026-05-04 11:13 | 30.20589 | 31.26140 | 9950 ft | 265 kts | 316° |
| 2026-05-04 11:13 | 30.22008 | 31.24752 | 10644 ft | 272 kts | 315° |
| 2026-05-04 11:13 | 30.23498 | 31.23248 | 10887 ft | 297 kts | 315° |
| 2026-05-04 11:13 | 30.25109 | 31.21584 | 11099 ft | 324 kts | 315° |
| 2026-05-04 11:14 | 30.26839 | 31.19775 | 11502 ft | 343 kts | 314° |
| 2026-05-04 11:14 | 30.28622 | 31.17893 | 12311 ft | 350 kts | 314° |
| 2026-05-04 11:14 | 30.30424 | 31.15981 | 13352 ft | 353 kts | 313° |
| 2026-05-04 11:16 | 30.43484 | 31.01926 | 19460 ft | 381 kts | 311° |
| 2026-05-04 11:16 | 30.45385 | 30.99871 | 20239 ft | 383 kts | 311° |
| 2026-05-04 11:16 | 30.47341 | 30.97756 | 21027 ft | 386 kts | 311° |
| 2026-05-04 11:17 | 30.49313 | 30.95623 | 21865 ft | 389 kts | 311° |
| 2026-05-04 11:17 | 30.51294 | 30.93478 | 22675 ft | 390 kts | 310° |
| 2026-05-04 11:19 | 30.65589 | 30.77955 | 26788 ft | 416 kts | 310° |
| 2026-05-04 11:19 | 30.67706 | 30.75651 | 27295 ft | 419 kts | 310° |
| 2026-05-04 11:19 | 30.69845 | 30.73322 | 27800 ft | 423 kts | 310° |
| 2026-05-04 11:19 | 30.71998 | 30.70976 | 28292 ft | 426 kts | 310° |
| 2026-05-04 11:20 | 30.74167 | 30.68611 | 28757 ft | 430 kts | 310° |
| 2026-05-04 11:20 | 30.76355 | 30.66224 | 29197 ft | 433 kts | 310° |
| 2026-05-04 11:20 | 30.78558 | 30.63819 | 29617 ft | 436 kts | 310° |
| 2026-05-04 11:20 | 30.80777 | 30.61395 | 30019 ft | 439 kts | 310° |
| 2026-05-04 11:22 | 30.96394 | 30.44296 | 32855 ft | 437 kts | 309° |
| 2026-05-04 11:22 | 30.98598 | 30.41874 | 33248 ft | 436 kts | 309° |
| 2026-05-04 11:23 | 31.00798 | 30.39454 | 33659 ft | 434 kts | 309° |
| 2026-05-04 11:23 | 31.02990 | 30.37044 | 34081 ft | 433 kts | 309° |
| 2026-05-04 11:24 | 31.12087 | 30.19950 | 35727 ft | 410 kts | 284° |
| 2026-05-04 11:25 | 31.12928 | 30.16767 | 35979 ft | 410 kts | 284° |
| 2026-05-04 11:25 | 31.13770 | 30.13595 | 36339 ft | 408 kts | 284° |
| 2026-05-04 11:25 | 31.14619 | 30.10441 | 36671 ft | 407 kts | 284° |
| 2026-05-04 11:26 | 31.16327 | 30.04180 | 37197 ft | 407 kts | 284° |
| 2026-05-04 11:27 | 31.30316 | 29.87722 | 38135 ft | 443 kts | 324° |
| 2026-05-04 11:28 | 31.35778 | 29.84445 | 38122 ft | 439 kts | 324° |
| 2026-05-04 11:28 | 31.41170 | 29.81124 | 38134 ft | 437 kts | 323° |
| 2026-05-04 11:29 | 31.46523 | 29.77773 | 38115 ft | 436 kts | 323° |
| 2026-05-04 11:29 | 31.51866 | 29.74414 | 38110 ft | 436 kts | 323° |
| 2026-05-04 11:33 | 31.89623 | 29.50582 | 38109 ft | 442 kts | 324° |
| 2026-05-04 11:33 | 31.95024 | 29.47155 | 38105 ft | 440 kts | 324° |
| 2026-05-04 11:34 | 32.00397 | 29.43742 | 38102 ft | 438 kts | 324° |
| 2026-05-04 11:34 | 32.05714 | 29.40350 | 38104 ft | 437 kts | 323° |
| 2026-05-04 11:35 | 32.11047 | 29.36937 | 38141 ft | 436 kts | 323° |
| 2026-05-04 11:35 | 32.16379 | 29.33522 | 38109 ft | 436 kts | 323° |
| 2026-05-04 11:36 | 32.21700 | 29.30110 | 38099 ft | 435 kts | 323° |
| 2026-05-04 11:36 | 32.27023 | 29.26701 | 38099 ft | 435 kts | 323° |
| 2026-05-04 11:37 | 32.32342 | 29.23292 | 38110 ft | 435 kts | 324° |
| 2026-05-04 11:37 | 32.37664 | 29.19875 | 38097 ft | 435 kts | 324° |
| 2026-05-04 11:38 | 32.42987 | 29.16453 | 38095 ft | 435 kts | 324° |
| 2026-05-04 11:38 | 32.48311 | 29.13025 | 38096 ft | 436 kts | 324° |
| 2026-05-04 11:39 | 32.53638 | 29.09590 | 38092 ft | 436 kts | 324° |
| 2026-05-04 11:41 | 32.72239 | 28.97560 | 38105 ft | 438 kts | 323° |
| 2026-05-04 11:41 | 32.77588 | 28.94089 | 38100 ft | 438 kts | 324° |